Time;durP1;ratioP1;P1;durP2;ratioP2;P2;SDS_P1;SDS_P2;PMS_P1;PMS_P2;Temp;Humidity;BMP_temperature;BMP_pressure;BME280_temperature;BME280_humidity;BME280_pressure;Samples;Min_cycle;Max_cycle;Signal;HPM_P1;HPM_P2
2023/03/04 00:00:10;;;;;;;65.22;27.45;;;-1.00;99.90;;;;;;2078605;28;20212;-72
2023/03/04 00:01:15;;;;;;;58.85;26.17;;;-1.00;99.90;;;;;;2072225;28;20608;-71
2023/03/04 00:02:21;;;;;;;61.42;29.40;;;-1.00;99.90;;;;;;2069382;28;20714;-71
2023/03/04 00:03:27;;;;;;;62.33;26.98;;;-1.10;99.90;;;;;;2068671;28;20198;-71
2023/03/04 00:04:32;;;;;;;61.00;27.02;;;-1.00;99.90;;;;;;2077993;28;20172;-71
2023/03/04 00:05:38;;;;;;;54.03;25.77;;;-1.10;99.90;;;;;;2076183;28;20184;-72
2023/03/04 00:06:44;;;;;;;54.65;26.00;;;-1.10;99.90;;;;;;2078076;28;20268;-72
2023/03/04 00:07:50;;;;;;;64.63;27.00;;;-1.00;99.90;;;;;;2075789;28;20239;-71
2023/03/04 00:08:55;;;;;;;60.60;27.00;;;-1.10;99.90;;;;;;2076433;28;20227;-73
2023/03/04 00:10:01;;;;;;;65.50;28.13;;;-1.10;99.90;;;;;;2071000;28;20207;-72
2023/03/04 00:11:04;;;;;;;62.25;28.25;;;-1.10;99.90;;;;;;2068810;28;20208;-72
2023/03/04 00:12:08;;;;;;;60.05;27.33;;;-1.10;99.90;;;;;;2075732;28;20216;-74
2023/03/04 00:13:15;;;;;;;65.55;28.65;;;-1.10;99.90;;;;;;2076971;28;20235;-76
2023/03/04 00:14:21;;;;;;;58.10;28.40;;;-1.10;99.90;;;;;;2070316;28;20182;-72
2023/03/04 00:15:27;;;;;;;58.38;27.83;;;-1.10;99.90;;;;;;2068533;28;20591;-77
2023/03/04 00:16:32;;;;;;;71.45;29.15;;;-1.10;99.90;;;;;;2078454;28;20188;-75
2023/03/04 00:17:38;;;;;;;75.38;30.50;;;-1.10;99.90;;;;;;2074864;28;20197;-73
2023/03/04 00:18:44;;;;;;;68.97;30.63;;;-1.10;99.90;;;;;;2076953;28;20700;-72
2023/03/04 00:19:49;;;;;;;75.10;29.30;;;-1.10;99.90;;;;;;2070914;28;20194;-72
2023/03/04 00:20:55;;;;;;;57.33;27.88;;;-1.10;99.90;;;;;;2069922;28;20188;-72
2023/03/04 00:22:02;;;;;;;68.88;29.77;;;-1.10;99.90;;;;;;2087136;28;20201;-72
2023/03/04 00:23:04;;;;;;;58.25;27.65;;;-1.20;99.90;;;;;;2076714;28;20182;-73
2023/03/04 00:24:08;;;;;;;60.72;27.42;;;-1.10;99.90;;;;;;2061002;28;20190;-70
2023/03/04 00:25:14;;;;;;;61.22;27.38;;;-1.10;99.90;;;;;;2069572;28;20220;-72
2023/03/04 00:26:20;;;;;;;62.15;27.67;;;-1.10;99.90;;;;;;2077592;28;20199;-72
2023/03/04 00:27:25;;;;;;;67.55;31.73;;;-1.10;99.90;;;;;;2084954;28;20687;-72
2023/03/04 00:28:31;;;;;;;72.05;30.70;;;-1.20;99.90;;;;;;2084208;28;20195;-73
2023/03/04 00:29:37;;;;;;;76.85;33.15;;;-1.20;99.90;;;;;;2081365;28;20208;-72
2023/03/04 00:30:43;;;;;;;82.40;33.28;;;-1.10;99.90;;;;;;2084967;28;20191;-73
2023/03/04 00:31:49;;;;;;;86.80;33.13;;;-1.10;99.90;;;;;;2085292;28;20177;-71
2023/03/04 00:32:54;;;;;;;66.25;28.98;;;-1.10;99.90;;;;;;2085438;28;20726;-71
2023/03/04 00:34:00;;;;;;;55.40;27.15;;;-1.10;99.90;;;;;;2076160;28;20196;-72
2023/03/04 00:35:05;;;;;;;64.85;28.02;;;-1.00;99.90;;;;;;2077079;28;20177;-72
2023/03/04 00:36:09;;;;;;;57.55;26.90;;;-1.10;99.90;;;;;;2084919;28;20184;-71
2023/03/04 00:37:14;;;;;;;55.30;26.30;;;-1.10;99.90;;;;;;2068078;28;20189;-72
2023/03/04 00:38:20;;;;;;;68.68;27.65;;;-1.10;99.90;;;;;;2065840;28;20683;-71
2023/03/04 00:39:27;;;;;;;61.20;28.70;;;-1.10;99.90;;;;;;2075816;28;20191;-72
2023/03/04 00:40:33;;;;;;;67.90;27.88;;;-1.20;99.90;;;;;;2077106;28;20183;-71
2023/03/04 00:41:39;;;;;;;55.88;25.40;;;-1.10;99.90;;;;;;2072629;28;20216;-71
2023/03/04 00:42:44;;;;;;;67.43;29.73;;;-1.20;99.90;;;;;;2068823;28;20254;-71
2023/03/04 00:43:50;;;;;;;63.75;27.42;;;-1.20;99.90;;;;;;2077667;28;20201;-71
2023/03/04 00:44:56;;;;;;;70.45;31.40;;;-1.20;99.90;;;;;;2085523;28;21000;-71
2023/03/04 00:46:02;;;;;;;77.38;30.50;;;-1.20;99.90;;;;;;2085712;28;20180;-72
2023/03/04 00:47:04;;;;;;;68.20;32.08;;;-1.20;99.90;;;;;;2085189;28;20621;-72
2023/03/04 00:48:08;;;;;;;78.30;33.67;;;-1.10;99.90;;;;;;2081307;28;20684;-72
2023/03/04 00:49:14;;;;;;;76.15;32.72;;;-1.20;99.90;;;;;;2067547;28;20282;-72
2023/03/04 00:50:20;;;;;;;74.47;31.88;;;-1.20;99.90;;;;;;2070537;28;20273;-73
2023/03/04 00:51:25;;;;;;;69.40;29.40;;;-1.10;99.90;;;;;;2085205;28;20254;-71
2023/03/04 00:52:31;;;;;;;76.38;29.55;;;-1.10;99.90;;;;;;2080314;28;20173;-71
2023/03/04 00:53:37;;;;;;;65.50;29.52;;;-1.00;99.90;;;;;;2069499;28;20189;-73
2023/03/04 00:54:42;;;;;;;66.32;30.13;;;-1.00;99.90;;;;;;2069954;28;20185;-72
2023/03/04 00:55:49;;;;;;;71.68;30.38;;;-1.00;99.90;;;;;;2068684;28;20173;-72
2023/03/04 00:56:54;;;;;;;75.10;30.17;;;-1.10;99.90;;;;;;2070696;28;20216;-72
2023/03/04 00:58:00;;;;;;;71.90;31.05;;;-1.00;99.90;;;;;;2085293;28;20188;-72
2023/03/04 00:59:04;;;;;;;73.85;29.88;;;-1.10;99.90;;;;;;2076457;28;20261;-73
2023/03/04 01:00:10;;;;;;;60.28;28.15;;;-1.10;99.90;;;;;;2057117;28;20548;-72
2023/03/04 01:01:16;;;;;;;61.22;28.30;;;-1.10;99.90;;;;;;2054110;28;20297;-73
2023/03/04 01:02:21;;;;;;;66.07;27.90;;;-1.10;99.90;;;;;;2069949;28;20193;-72
2023/03/04 01:03:30;;;;;;;63.22;28.88;;;-1.10;99.90;;;;;;2081859;28;20246;-71
2023/03/04 01:04:36;;;;;;;63.47;28.27;;;-1.20;99.90;;;;;;2086032;28;20207;-72
2023/03/04 01:05:42;;;;;;;65.25;28.75;;;-1.10;99.90;;;;;;2072327;28;20195;-73
2023/03/04 01:06:48;;;;;;;61.53;27.92;;;-1.20;99.90;;;;;;2076128;28;20196;-73
2023/03/04 01:07:53;;;;;;;57.03;27.33;;;-1.20;99.90;;;;;;2060237;28;20208;-72
2023/03/04 01:08:59;;;;;;;62.35;28.70;;;-1.20;99.90;;;;;;2052598;28;20175;-72
2023/03/04 01:10:13;;;;;;;72.25;28.90;;;-1.10;99.90;;;;;;2069728;28;20209;-72
2023/03/04 01:11:18;;;;;;;74.70;29.98;;;-1.20;99.90;;;;;;2075557;28;20266;-72
2023/03/04 01:12:24;;;;;;;75.35;32.25;;;-1.20;99.90;;;;;;2084966;28;20175;-72
2023/03/04 01:13:30;;;;;;;66.78;29.75;;;-1.20;99.90;;;;;;2084897;28;20193;-73
2023/03/04 01:14:35;;;;;;;67.32;29.80;;;-1.20;99.90;;;;;;2068480;28;20276;-72
2023/03/04 01:15:41;;;;;;;66.22;28.50;;;-1.20;99.90;;;;;;2070330;28;20220;-72
2023/03/04 01:16:48;;;;;;;61.67;28.10;;;-1.20;99.90;;;;;;2076337;28;20558;-72
2023/03/04 01:17:54;;;;;;;63.55;28.63;;;-1.20;99.90;;;;;;2069787;28;20197;-72
2023/03/04 01:19:00;;;;;;;58.65;25.23;;;-1.20;99.90;;;;;;2070016;28;20727;-71
2023/03/04 01:20:05;;;;;;;59.72;27.10;;;-1.20;99.90;;;;;;2073413;28;20196;-73
2023/03/04 01:21:09;;;;;;;67.28;29.73;;;-1.20;99.90;;;;;;2084739;28;20217;-72
2023/03/04 01:22:15;;;;;;;76.68;32.80;;;-1.20;99.90;;;;;;2060149;28;20195;-72
2023/03/04 01:23:21;;;;;;;62.17;29.08;;;-1.30;99.90;;;;;;2062622;28;20622;-72
2023/03/04 01:24:28;;;;;;;76.13;33.47;;;-1.20;99.90;;;;;;2068505;28;20684;-71
2023/03/04 01:25:34;;;;;;;73.60;32.13;;;-1.30;99.90;;;;;;2069677;28;20245;-71
2023/03/04 01:26:40;;;;;;;68.53;29.55;;;-1.20;99.90;;;;;;2085544;28;20199;-72
2023/03/04 01:27:45;;;;;;;71.32;29.85;;;-1.20;99.90;;;;;;2085195;28;20180;-72
2023/03/04 01:28:51;;;;;;;61.75;28.85;;;-1.20;99.90;;;;;;2079874;28;20567;-72
2023/03/04 01:29:57;;;;;;;69.53;27.55;;;-1.30;99.90;;;;;;2088734;28;20202;-72
2023/03/04 01:31:03;;;;;;;62.75;27.98;;;-1.30;99.90;;;;;;2077018;28;20694;-72
2023/03/04 01:32:09;;;;;;;58.20;25.23;;;-1.30;99.90;;;;;;2076147;28;20196;-73
2023/03/04 01:33:14;;;;;;;63.67;29.10;;;-1.40;99.90;;;;;;2075849;28;20192;-73
2023/03/04 01:34:20;;;;;;;55.70;25.50;;;-1.40;99.90;;;;;;2077026;28;20972;-74
2023/03/04 01:35:26;;;;;;;61.35;26.38;;;-1.40;99.90;;;;;;2081597;28;20180;-72
2023/03/04 01:36:32;;;;;;;69.90;27.73;;;-1.50;99.90;;;;;;2085063;28;20180;-72
2023/03/04 01:37:37;;;;;;;71.68;30.17;;;-1.50;99.90;;;;;;2084948;28;20201;-72
2023/03/04 01:38:43;;;;;;;63.05;26.35;;;-1.50;99.90;;;;;;2085455;28;20275;-73
2023/03/04 01:39:49;;;;;;;59.45;26.23;;;-1.50;99.90;;;;;;2065361;28;20217;-72
2023/03/04 01:40:54;;;;;;;68.75;29.83;;;-1.50;99.90;;;;;;2066269;28;20259;-73
2023/03/04 01:42:00;;;;;;;65.80;28.50;;;-1.50;99.90;;;;;;2084525;28;20217;-75
2023/03/04 01:43:05;;;;;;;58.78;27.33;;;-1.60;99.90;;;;;;2084162;28;20270;-73
2023/03/04 01:44:10;;;;;;;63.15;28.75;;;-1.60;99.90;;;;;;2073000;28;20181;-72
2023/03/04 01:45:18;;;;;;;65.18;29.17;;;-1.60;99.90;;;;;;2061562;28;20202;-72
2023/03/04 01:46:24;;;;;;;62.88;27.15;;;-1.60;99.90;;;;;;2070118;28;20186;-73
2023/03/04 01:47:32;;;;;;;59.80;27.23;;;-1.60;99.90;;;;;;2069546;28;20200;-72
2023/03/04 01:48:38;;;;;;;58.67;27.85;;;-1.70;99.90;;;;;;2069403;28;20218;-73
2023/03/04 01:49:55;;;;;;;60.28;26.77;;;-1.70;99.90;;;;;;2073559;28;20231;-73
2023/03/04 01:51:03;;;;;;;63.40;27.85;;;-1.60;99.90;;;;;;2085006;28;20263;-72
2023/03/04 01:52:12;;;;;;;70.65;27.80;;;-1.60;99.90;;;;;;2074482;28;20196;-74
2023/03/04 01:53:27;;;;;;;64.05;27.88;;;-1.60;99.90;;;;;;2078695;28;20673;-73
2023/03/04 01:54:27;;;;;;;65.63;28.10;;;-1.60;99.90;;;;;;2074394;28;20189;-72
2023/03/04 01:55:33;;;;;;;62.00;27.45;;;-1.60;99.90;;;;;;2053710;28;20701;-72
2023/03/04 01:56:39;;;;;;;66.45;26.65;;;-1.60;99.90;;;;;;2063626;28;20629;-72
2023/03/04 01:57:47;;;;;;;71.50;29.52;;;-1.60;99.90;;;;;;2076441;28;20189;-72
2023/03/04 01:59:16;;;;;;;61.88;26.70;;;-1.70;99.90;;;;;;2069474;28;20184;-73
2023/03/04 02:00:29;;;;;;;59.63;26.05;;;-1.70;99.90;;;;;;2078664;28;20679;-72
2023/03/04 02:01:32;;;;;;;54.60;26.20;;;-1.70;99.90;;;;;;2078307;28;20211;-73
2023/03/04 02:02:37;;;;;;;60.67;26.20;;;-1.70;99.90;;;;;;2078998;28;20935;-73
2023/03/04 02:03:42;;;;;;;61.83;27.42;;;-1.70;99.90;;;;;;2077515;28;20712;-72
2023/03/04 02:04:48;;;;;;;63.80;28.20;;;-1.70;99.90;;;;;;2070634;28;20184;-73
2023/03/04 02:05:54;;;;;;;63.53;26.23;;;-1.70;99.90;;;;;;2062824;28;20183;-72
2023/03/04 02:07:01;;;;;;;65.50;28.40;;;-1.70;99.90;;;;;;2072037;28;20191;-72
2023/03/04 02:08:06;;;;;;;58.17;25.17;;;-1.70;99.90;;;;;;2077739;28;20270;-73
2023/03/04 02:09:10;;;;;;;68.75;28.20;;;-1.70;99.90;;;;;;2065871;28;20216;-72
2023/03/04 02:10:15;;;;;;;66.10;27.23;;;-1.80;99.90;;;;;;2074446;28;20585;-72
2023/03/04 02:11:20;;;;;;;66.97;27.17;;;-1.80;99.90;;;;;;2085754;28;20293;-72
2023/03/04 02:12:26;;;;;;;71.40;28.30;;;-1.80;99.90;;;;;;2077898;28;20188;-73
2023/03/04 02:13:33;;;;;;;60.90;25.52;;;-1.80;99.90;;;;;;2079196;28;20247;-72
2023/03/04 02:14:38;;;;;;;58.63;25.17;;;-1.80;99.90;;;;;;2077922;28;20200;-72
2023/03/04 02:15:44;;;;;;;56.97;27.65;;;-1.80;99.90;;;;;;2059801;28;20197;-72
2023/03/04 02:16:49;;;;;;;63.47;26.70;;;-1.80;99.90;;;;;;2070734;28;20247;-73
2023/03/04 02:17:53;;;;;;;66.32;27.90;;;-1.80;99.90;;;;;;2070491;28;20185;-72
2023/03/04 02:18:59;;;;;;;62.60;27.45;;;-1.80;99.90;;;;;;2075033;28;20192;-72
2023/03/04 02:20:17;;;;;;;64.68;27.98;;;-1.90;99.90;;;;;;2077353;28;20192;-72
2023/03/04 02:21:29;;;;;;;65.78;28.55;;;-1.90;99.90;;;;;;2069450;28;20207;-72
2023/03/04 02:22:42;;;;;;;60.28;26.75;;;-1.90;99.90;;;;;;2069485;28;20217;-72
2023/03/04 02:23:53;;;;;;;63.65;27.08;;;-1.90;99.90;;;;;;2074508;28;20204;-72
2023/03/04 02:25:11;;;;;;;59.85;26.23;;;-1.90;99.90;;;;;;2082291;28;20691;-73
2023/03/04 02:26:23;;;;;;;65.15;25.98;;;-1.90;99.90;;;;;;2077550;28;20670;-72
2023/03/04 02:27:28;;;;;;;53.60;26.38;;;-1.80;99.90;;;;;;2071337;28;20274;-72
2023/03/04 02:28:34;;;;;;;64.32;27.50;;;-1.90;99.90;;;;;;2071288;28;20180;-72
2023/03/04 02:29:40;;;;;;;59.03;24.75;;;-1.90;99.90;;;;;;2062033;28;20224;-72
2023/03/04 02:30:46;;;;;;;65.03;26.30;;;-1.90;99.90;;;;;;2062470;28;20198;-72
2023/03/04 02:31:53;;;;;;;59.45;24.80;;;-1.90;99.90;;;;;;2085566;28;20272;-73
2023/03/04 02:32:59;;;;;;;59.08;25.58;;;-2.00;99.90;;;;;;2086796;28;20251;-71
2023/03/04 02:34:15;;;;;;;55.47;24.45;;;-2.00;99.90;;;;;;2077876;28;20198;-72
2023/03/04 02:35:21;;;;;;;55.53;24.88;;;-1.90;99.90;;;;;;2069850;28;20177;-73
2023/03/04 02:36:28;;;;;;;66.60;28.40;;;-1.90;99.90;;;;;;2070644;28;20204;-72
2023/03/04 02:37:33;;;;;;;77.25;29.80;;;-2.00;99.90;;;;;;2067531;28;20180;-72
2023/03/04 02:38:39;;;;;;;58.55;27.23;;;-2.00;99.90;;;;;;2078725;28;20760;-72
2023/03/04 02:39:47;;;;;;;63.60;27.25;;;-2.00;99.90;;;;;;2077427;28;20187;-73
2023/03/04 02:40:55;;;;;;;67.57;28.08;;;-2.00;99.90;;;;;;2077845;28;20188;-72
2023/03/04 02:42:03;;;;;;;63.38;27.88;;;-2.00;99.90;;;;;;2062812;28;20198;-72
2023/03/04 02:43:04;;;;;;;73.72;30.63;;;-2.00;99.90;;;;;;2066342;28;20201;-72
2023/03/04 02:44:26;;;;;;;62.60;28.63;;;-2.00;99.90;;;;;;2077800;28;20255;-72
2023/03/04 02:45:38;;;;;;;57.90;25.83;;;-1.90;99.90;;;;;;2074972;28;20181;-72
2023/03/04 02:46:41;;;;;;;65.65;27.45;;;-1.90;99.90;;;;;;2077013;28;20199;-71
2023/03/04 02:47:47;;;;;;;72.68;29.17;;;-2.00;99.90;;;;;;2070299;28;20236;-72
2023/03/04 02:48:52;;;;;;;72.50;28.88;;;-2.00;99.90;;;;;;2077620;28;20719;-71
2023/03/04 02:49:58;;;;;;;61.28;26.35;;;-2.00;99.90;;;;;;2073914;28;20308;-72
2023/03/04 02:51:04;;;;;;;57.33;25.60;;;-1.90;99.90;;;;;;2078586;28;20185;-72
2023/03/04 02:52:20;;;;;;;62.42;26.02;;;-2.00;99.90;;;;;;2069348;28;20287;-72
2023/03/04 02:53:26;;;;;;;58.30;26.67;;;-2.00;99.90;;;;;;2066022;28;20199;-72
2023/03/04 02:54:32;;;;;;;58.58;25.90;;;-2.00;99.90;;;;;;2070815;28;20202;-72
2023/03/04 02:55:38;;;;;;;66.03;27.90;;;-2.00;99.90;;;;;;2076961;28;20243;-72
2023/03/04 02:56:47;;;;;;;60.70;26.60;;;-2.00;99.90;;;;;;2083692;28;20184;-71
2023/03/04 02:57:53;;;;;;;62.95;27.85;;;-2.00;99.90;;;;;;2061086;28;20192;-72
2023/03/04 02:58:58;;;;;;;62.03;27.38;;;-2.10;99.90;;;;;;2073115;28;20189;-71
2023/03/04 03:00:05;;;;;;;59.22;25.92;;;-2.10;99.90;;;;;;2086185;28;20246;-72
2023/03/04 03:01:11;;;;;;;64.63;26.70;;;-2.10;99.90;;;;;;2077008;28;20216;-72
2023/03/04 03:02:17;;;;;;;63.22;26.25;;;-2.10;99.90;;;;;;2066463;28;20200;-72
2023/03/04 03:03:22;;;;;;;57.55;25.77;;;-2.10;99.90;;;;;;2067692;28;20189;-73
2023/03/04 03:04:28;;;;;;;56.20;27.10;;;-2.10;99.90;;;;;;2085664;28;20199;-73
2023/03/04 03:05:35;;;;;;;66.40;29.35;;;-2.10;99.90;;;;;;2086158;28;20620;-73
2023/03/04 03:06:41;;;;;;;57.30;26.42;;;-2.10;99.90;;;;;;2077909;28;20210;-73
2023/03/04 03:07:47;;;;;;;65.90;26.30;;;-2.10;99.90;;;;;;2076875;28;20183;-72
2023/03/04 03:08:52;;;;;;;54.30;25.33;;;-2.10;99.90;;;;;;2078294;28;20184;-73
2023/03/04 03:09:58;;;;;;;68.55;29.15;;;-2.10;99.90;;;;;;2060386;28;20273;-73
2023/03/04 03:11:04;;;;;;;59.97;27.92;;;-2.10;99.90;;;;;;2060508;28;20177;-72
2023/03/04 03:12:09;;;;;;;61.38;25.65;;;-2.10;99.90;;;;;;2085577;28;20266;-73
2023/03/04 03:13:15;;;;;;;68.45;26.75;;;-2.10;99.90;;;;;;2077571;28;20274;-72
2023/03/04 03:14:21;;;;;;;64.97;27.83;;;-2.10;99.90;;;;;;2078429;28;20181;-73
2023/03/04 03:15:26;;;;;;;61.60;25.85;;;-2.10;99.90;;;;;;2085953;28;20222;-72
2023/03/04 03:16:32;;;;;;;68.95;27.60;;;-2.10;99.90;;;;;;2078360;28;20181;-72
2023/03/04 03:17:38;;;;;;;64.65;27.67;;;-2.10;99.90;;;;;;2070335;28;20223;-73
2023/03/04 03:18:44;;;;;;;65.57;29.48;;;-2.10;99.90;;;;;;2065815;28;20180;-72
2023/03/04 03:19:50;;;;;;;63.95;27.48;;;-2.10;99.90;;;;;;2067573;28;20216;-72
2023/03/04 03:20:56;;;;;;;67.55;27.55;;;-2.10;99.90;;;;;;2077252;28;20188;-72
2023/03/04 03:22:02;;;;;;;68.47;28.73;;;-2.00;99.90;;;;;;2078190;28;20181;-72
2023/03/04 03:23:04;;;;;;;63.60;27.95;;;-2.00;99.90;;;;;;2077290;28;20197;-72
2023/03/04 03:24:09;;;;;;;66.05;30.00;;;-2.00;99.90;;;;;;2074218;28;20269;-72
2023/03/04 03:25:16;;;;;;;72.05;30.63;;;-2.00;99.90;;;;;;2085762;28;20217;-73
2023/03/04 03:26:21;;;;;;;66.35;28.25;;;-2.00;99.90;;;;;;2081565;28;20690;-72
2023/03/04 03:27:27;;;;;;;65.43;28.00;;;-2.10;99.90;;;;;;2076631;28;20207;-72
2023/03/04 03:28:33;;;;;;;75.13;28.88;;;-2.10;99.90;;;;;;2077526;28;20669;-72
2023/03/04 03:29:39;;;;;;;56.42;25.83;;;-2.10;99.90;;;;;;2079217;28;20212;-72
2023/03/04 03:30:45;;;;;;;59.92;26.42;;;-2.00;99.90;;;;;;2080341;28;20690;-72
2023/03/04 03:31:51;;;;;;;58.97;26.13;;;-2.00;99.90;;;;;;2069002;28;20191;-71
2023/03/04 03:32:56;;;;;;;62.47;27.33;;;-2.10;99.90;;;;;;2075234;28;20300;-72
2023/03/04 03:34:02;;;;;;;62.72;26.35;;;-2.00;99.90;;;;;;2057904;28;20186;-72
2023/03/04 03:35:05;;;;;;;59.75;25.83;;;-2.00;99.90;;;;;;2062624;28;20181;-72
2023/03/04 03:36:09;;;;;;;55.70;25.45;;;-2.10;99.90;;;;;;2075561;28;20230;-73
2023/03/04 03:37:15;;;;;;;61.42;25.10;;;-2.10;99.90;;;;;;2062715;28;20228;-73
2023/03/04 03:38:21;;;;;;;60.55;27.77;;;-2.10;99.90;;;;;;2069641;28;20189;-72
2023/03/04 03:39:27;;;;;;;60.58;26.85;;;-2.10;99.90;;;;;;2077359;28;20199;-71
2023/03/04 03:40:32;;;;;;;60.53;25.40;;;-2.10;99.90;;;;;;2078575;28;20687;-72
2023/03/04 03:41:38;;;;;;;65.30;27.98;;;-2.10;99.90;;;;;;2077109;28;20210;-72
2023/03/04 03:42:44;;;;;;;61.83;27.67;;;-2.10;99.90;;;;;;2077937;28;20226;-72
2023/03/04 03:43:49;;;;;;;58.17;27.02;;;-2.10;99.90;;;;;;2085116;28;20528;-71
2023/03/04 03:44:55;;;;;;;60.40;26.10;;;-2.10;99.90;;;;;;2072781;28;20179;-71
2023/03/04 03:46:01;;;;;;;62.10;29.05;;;-2.10;99.90;;;;;;2076581;28;20172;-71
2023/03/04 03:47:04;;;;;;;64.10;28.15;;;-2.10;99.90;;;;;;2077544;28;20181;-71
2023/03/04 03:48:09;;;;;;;69.40;27.25;;;-2.10;99.90;;;;;;2076976;28;20170;-72
2023/03/04 03:49:16;;;;;;;65.35;27.55;;;-2.10;99.90;;;;;;2070305;28;20662;-71
2023/03/04 03:50:21;;;;;;;66.57;28.33;;;-2.20;99.90;;;;;;2058324;28;20194;-73
2023/03/04 03:51:27;;;;;;;62.67;26.42;;;-2.10;99.90;;;;;;2061543;28;20663;-71
2023/03/04 03:52:33;;;;;;;52.70;26.15;;;-2.10;99.90;;;;;;2078171;28;20200;-71
2023/03/04 03:53:38;;;;;;;58.67;25.63;;;-2.10;99.90;;;;;;2077162;28;20188;-71
2023/03/04 03:54:44;;;;;;;60.03;25.83;;;-2.10;99.90;;;;;;2070502;28;20205;-71
2023/03/04 03:55:50;;;;;;;58.80;24.70;;;-2.20;99.90;;;;;;2065434;28;20185;-72
2023/03/04 03:56:56;;;;;;;58.80;24.92;;;-2.20;99.90;;;;;;2065866;28;20193;-72
2023/03/04 03:58:01;;;;;;;61.42;26.58;;;-2.20;99.90;;;;;;2059174;28;20185;-71
2023/03/04 03:59:04;;;;;;;62.00;26.48;;;-2.20;99.90;;;;;;2061574;28;20305;-71
2023/03/04 04:00:10;;;;;;;60.85;27.20;;;-2.20;99.90;;;;;;2068914;28;20193;-72
2023/03/04 04:01:16;;;;;;;64.55;27.30;;;-2.20;99.90;;;;;;2069965;28;20217;-71
2023/03/04 04:02:22;;;;;;;77.57;30.02;;;-2.20;99.90;;;;;;2069770;28;20267;-73
2023/03/04 04:03:28;;;;;;;66.35;29.80;;;-2.20;99.90;;;;;;2066550;28;20576;-72
2023/03/04 04:04:34;;;;;;;64.60;28.05;;;-2.20;99.90;;;;;;2074731;28;20231;-71
2023/03/04 04:05:40;;;;;;;64.32;26.45;;;-2.20;99.90;;;;;;2070729;28;20272;-72
2023/03/04 04:06:46;;;;;;;62.88;27.10;;;-2.20;99.90;;;;;;2077214;28;20701;-72
2023/03/04 04:07:52;;;;;;;56.70;25.45;;;-2.20;99.90;;;;;;2069936;28;20880;-73
2023/03/04 04:08:58;;;;;;;62.00;27.58;;;-2.20;99.90;;;;;;2069367;28;20221;-72
2023/03/04 04:10:05;;;;;;;57.25;25.20;;;-2.20;99.90;;;;;;2061423;28;20235;-71
2023/03/04 04:11:11;;;;;;;61.45;25.67;;;-2.20;99.90;;;;;;2072146;28;20276;-71
2023/03/04 04:12:18;;;;;;;59.97;26.42;;;-2.20;99.90;;;;;;2069072;28;20204;-71
2023/03/04 04:13:24;;;;;;;58.05;24.63;;;-2.20;99.90;;;;;;2067650;28;20185;-72
2023/03/04 04:14:29;;;;;;;55.42;24.50;;;-2.20;99.90;;;;;;2075600;28;20280;-71
2023/03/04 04:15:37;;;;;;;57.67;24.38;;;-2.30;99.90;;;;;;2079511;28;20189;-71
2023/03/04 04:16:43;;;;;;;50.53;24.42;;;-2.30;99.90;;;;;;2076451;28;20184;-72
2023/03/04 04:17:48;;;;;;;63.42;25.80;;;-2.30;99.90;;;;;;2070102;28;20190;-71
2023/03/04 04:18:54;;;;;;;64.13;26.63;;;-2.30;99.90;;;;;;2078305;28;20581;-71
2023/03/04 04:20:00;;;;;;;55.50;24.80;;;-2.40;99.90;;;;;;2085631;28;20195;-72
2023/03/04 04:21:04;;;;;;;54.65;24.88;;;-2.40;99.90;;;;;;2081374;28;20954;-72
2023/03/04 04:22:16;;;;;;;65.45;27.63;;;-2.40;99.90;;;;;;2075918;28;20196;-72
2023/03/04 04:23:22;;;;;;;63.28;27.15;;;-2.40;99.90;;;;;;2067127;28;20235;-71
2023/03/04 04:24:28;;;;;;;60.72;26.80;;;-2.40;99.90;;;;;;2077434;28;20228;-71
2023/03/04 04:25:34;;;;;;;65.53;27.40;;;-2.40;99.90;;;;;;2081400;28;20181;-71
2023/03/04 04:26:40;;;;;;;55.70;24.50;;;-2.40;99.90;;;;;;2085358;28;20254;-71
2023/03/04 04:27:46;;;;;;;62.22;26.63;;;-2.40;99.90;;;;;;2085346;28;20567;-72
2023/03/04 04:28:52;;;;;;;67.13;26.60;;;-2.40;99.90;;;;;;2068678;28;20200;-71
2023/03/04 04:29:57;;;;;;;60.00;25.38;;;-2.40;99.90;;;;;;2070589;28;20300;-72
2023/03/04 04:31:07;;;;;;;53.13;24.73;;;-2.40;99.90;;;;;;2072937;28;20693;-72
2023/03/04 04:32:11;;;;;;;56.88;24.48;;;-2.40;99.90;;;;;;2053058;28;20713;-71
2023/03/04 04:33:17;;;;;;;56.33;24.08;;;-2.50;99.90;;;;;;2053787;28;20202;-72
2023/03/04 04:34:24;;;;;;;54.63;23.23;;;-2.50;99.90;;;;;;2066243;28;20696;-71
2023/03/04 04:35:32;;;;;;;59.70;26.55;;;-2.50;99.90;;;;;;2068117;28;20189;-72
2023/03/04 04:36:38;;;;;;;53.30;25.25;;;-2.40;99.90;;;;;;2067946;28;20191;-73
2023/03/04 04:37:43;;;;;;;61.40;24.42;;;-2.40;99.90;;;;;;2077118;28;20674;-72
2023/03/04 04:38:49;;;;;;;62.70;23.85;;;-2.40;99.90;;;;;;2085723;28;20609;-72
2023/03/04 04:39:54;;;;;;;65.07;26.90;;;-2.40;99.90;;;;;;2085701;28;20406;-71
2023/03/04 04:41:00;;;;;;;58.28;25.70;;;-2.40;99.90;;;;;;2073155;28;20191;-72
2023/03/04 04:42:04;;;;;;;58.17;25.75;;;-2.50;99.90;;;;;;2069239;28;20178;-72
2023/03/04 04:43:09;;;;;;;57.67;24.33;;;-2.40;99.90;;;;;;2077837;28;20220;-72
2023/03/04 04:44:15;;;;;;;58.13;25.20;;;-2.50;99.90;;;;;;2084900;28;20349;-74
2023/03/04 04:45:20;;;;;;;68.35;27.50;;;-2.50;99.90;;;;;;2084895;28;20277;-71
2023/03/04 04:46:26;;;;;;;71.95;28.23;;;-2.50;99.90;;;;;;2084768;28;20199;-72
2023/03/04 04:47:31;;;;;;;75.25;30.42;;;-2.50;99.90;;;;;;2067844;28;20203;-71
2023/03/04 04:48:37;;;;;;;67.43;27.67;;;-2.50;99.90;;;;;;2066313;28;20279;-72
2023/03/04 04:49:43;;;;;;;68.43;27.88;;;-2.50;99.90;;;;;;2084746;28;20206;-71
2023/03/04 04:50:55;;;;;;;71.93;28.33;;;-2.40;99.90;;;;;;2084467;28;20181;-72
2023/03/04 04:51:58;;;;;;;63.33;27.00;;;-2.40;99.90;;;;;;2084964;28;20240;-71
2023/03/04 04:53:03;;;;;;;59.75;25.02;;;-2.40;99.90;;;;;;2084775;28;20182;-72
2023/03/04 04:54:05;;;;;;;64.13;26.48;;;-2.50;99.90;;;;;;2084912;28;20179;-71
2023/03/04 04:55:10;;;;;;;58.95;25.38;;;-2.50;99.90;;;;;;2084722;28;20210;-72
2023/03/04 04:56:21;;;;;;;64.05;25.55;;;-2.40;99.90;;;;;;2068069;28;20185;-73
2023/03/04 04:57:26;;;;;;;56.63;23.83;;;-2.40;99.90;;;;;;2053030;28;20748;-72
2023/03/04 04:58:32;;;;;;;67.07;27.80;;;-2.40;99.90;;;;;;2069980;28;20194;-72
2023/03/04 04:59:37;;;;;;;64.32;27.30;;;-2.50;99.90;;;;;;2076633;28;20210;-72
2023/03/04 05:00:42;;;;;;;64.60;29.48;;;-2.40;99.90;;;;;;2077124;28;20229;-72
2023/03/04 05:01:48;;;;;;;63.80;28.33;;;-2.40;99.90;;;;;;2076247;28;20189;-72
2023/03/04 05:02:53;;;;;;;77.18;30.25;;;-2.40;99.90;;;;;;2069305;28;20193;-72
2023/03/04 05:03:59;;;;;;;71.97;31.10;;;-2.40;99.90;;;;;;2067465;28;20197;-72
2023/03/04 05:05:06;;;;;;;72.07;31.02;;;-2.40;99.90;;;;;;2085376;28;20287;-71
2023/03/04 05:06:11;;;;;;;91.13;32.60;;;-2.30;99.90;;;;;;2085374;28;20179;-72
2023/03/04 05:07:14;;;;;;;82.85;30.42;;;-2.30;99.90;;;;;;2076304;28;20207;-72
2023/03/04 05:08:20;;;;;;;75.97;29.70;;;-2.30;99.90;;;;;;2064787;28;20198;-72
2023/03/04 05:09:25;;;;;;;69.55;30.10;;;-2.30;99.90;;;;;;2060932;28;20185;-72
2023/03/04 05:10:27;;;;;;;71.97;31.30;;;-2.30;99.90;;;;;;2060200;28;20192;-71
2023/03/04 05:11:33;;;;;;;67.53;27.88;;;-2.30;99.90;;;;;;2067476;28;20209;-71
2023/03/04 05:12:38;;;;;;;70.03;28.10;;;-2.40;99.90;;;;;;2069642;28;20200;-72
2023/03/04 05:13:44;;;;;;;72.72;28.40;;;-2.40;99.90;;;;;;2069849;28;20181;-73
2023/03/04 05:14:49;;;;;;;67.93;29.65;;;-2.40;99.90;;;;;;2062810;28;20184;-71
2023/03/04 05:15:56;;;;;;;69.38;28.52;;;-2.30;99.90;;;;;;2071557;28;20188;-71
2023/03/04 05:17:00;;;;;;;63.08;27.00;;;-2.30;99.90;;;;;;2068707;28;20178;-72
2023/03/04 05:18:04;;;;;;;67.97;27.90;;;-2.30;99.90;;;;;;2078228;28;20813;-72
2023/03/04 05:19:09;;;;;;;63.60;28.63;;;-2.30;99.90;;;;;;2085538;28;20271;-72
2023/03/04 05:20:15;;;;;;;69.45;27.90;;;-2.30;99.90;;;;;;2081197;28;20755;-71
2023/03/04 05:21:20;;;;;;;66.45;28.17;;;-2.40;99.90;;;;;;2084535;28;20216;-71
2023/03/04 05:22:26;;;;;;;63.20;27.33;;;-2.40;99.90;;;;;;2084991;28;20270;-72
2023/03/04 05:23:36;;;;;;;65.75;27.38;;;-2.40;99.90;;;;;;2080292;28;20188;-71
2023/03/04 05:24:38;;;;;;;62.03;26.05;;;-2.40;99.90;;;;;;2072939;28;20250;-72
2023/03/04 05:25:43;;;;;;;66.72;27.10;;;-2.50;99.90;;;;;;2065513;28;20206;-72
2023/03/04 05:26:49;;;;;;;63.97;27.35;;;-2.50;99.90;;;;;;2049531;29;20279;-71
2023/03/04 05:27:54;;;;;;;59.97;25.95;;;-2.50;99.90;;;;;;2054799;28;20199;-71
2023/03/04 05:29:00;;;;;;;65.88;27.60;;;-2.50;99.90;;;;;;2070714;28;20661;-72
2023/03/04 05:30:05;;;;;;;66.15;27.77;;;-2.50;99.90;;;;;;2085365;28;20208;-71
2023/03/04 05:31:09;;;;;;;65.75;28.42;;;-2.50;99.90;;;;;;2077920;28;20325;-71
2023/03/04 05:32:15;;;;;;;65.32;26.67;;;-2.60;99.90;;;;;;2063551;28;20778;-72
2023/03/04 05:33:20;;;;;;;61.00;24.48;;;-2.60;99.90;;;;;;2077998;28;20179;-72
2023/03/04 05:34:26;;;;;;;64.18;26.20;;;-2.50;99.90;;;;;;2081428;28;20191;-73
2023/03/04 05:35:31;;;;;;;66.82;26.27;;;-2.50;99.90;;;;;;2086663;28;20711;-72